Time;durP1;ratioP1;P1;durP2;ratioP2;P2;SDS_P1;SDS_P2;PMS_P1;PMS_P2;Temp;Humidity;BMP_temperature;BMP_pressure;BME280_temperature;BME280_humidity;BME280_pressure;Samples;Min_cycle;Max_cycle;Signal;HPM_P1;HPM_P2
2022/10/29 00:00:55;;;;;;;2.43;2.10;;;;;;;13.57;93.75;102063.88;5072307;28;20025;-84
2022/10/29 00:03:21;;;;;;;2.63;1.88;;;;;;;13.55;93.71;102065.63;5073292;28;20040;-84
2022/10/29 00:06:04;;;;;;;2.10;1.90;;;;;;;13.55;93.50;102061.28;5075258;28;20086;-84
2022/10/29 00:08:32;;;;;;;2.20;2.00;;;;;;;13.53;94.27;102054.34;5075904;28;20116;-84
2022/10/29 00:11:07;;;;;;;2.30;2.10;;;;;;;13.51;94.34;102051.75;5075319;28;20028;-84
2022/10/29 00:13:33;;;;;;;3.15;2.40;;;;;;;13.50;93.99;102052.63;5074957;28;20025;-84
2022/10/29 00:15:58;;;;;;;3.20;2.33;;;;;;;13.47;93.88;102041.34;5075228;28;20025;-84
2022/10/29 00:18:23;;;;;;;2.83;2.50;;;;;;;13.41;93.85;102037.91;5075244;28;20032;-84
2022/10/29 00:20:48;;;;;;;4.90;2.60;;;;;;;13.40;93.89;102037.94;5074543;28;20021;-84
2022/10/29 00:23:14;;;;;;;4.33;2.60;;;;;;;13.36;93.91;102037.06;5075128;28;20085;-84
2022/10/29 00:25:39;;;;;;;3.50;2.50;;;;;;;13.35;94.06;102050.09;5074922;28;20420;-84
2022/10/29 00:28:05;;;;;;;4.20;2.50;;;;;;;13.32;93.85;102060.56;5074865;28;20112;-84
2022/10/29 00:30:30;;;;;;;3.83;2.43;;;;;;;13.28;93.71;102055.38;5075381;28;20028;-84
2022/10/29 00:32:55;;;;;;;3.00;2.33;;;;;;;13.26;93.91;102058.88;5074204;28;20028;-84
2022/10/29 00:35:20;;;;;;;2.97;2.30;;;;;;;13.23;93.72;102048.47;5075926;28;20403;-84
2022/10/29 00:37:46;;;;;;;3.23;2.40;;;;;;;13.22;93.68;102062.38;5075583;28;20028;-84
2022/10/29 00:40:11;;;;;;;4.03;2.60;;;;;;;13.21;93.96;102066.72;5074394;28;20480;-84
2022/10/29 00:42:37;;;;;;;3.23;2.30;;;;;;;13.20;94.00;102062.38;5075202;28;20115;-84
2022/10/29 00:45:02;;;;;;;2.93;2.40;;;;;;;13.20;93.94;102059.78;5074989;28;20024;-84
2022/10/29 00:47:34;;;;;;;2.93;2.10;;;;;;;13.21;94.12;102060.63;5074066;28;20490;-84
2022/10/29 00:50:06;;;;;;;2.88;2.08;;;;;;;13.20;94.18;102070.22;5074468;28;20025;-84
2022/10/29 00:52:36;;;;;;;2.60;1.90;;;;;;;13.21;94.17;102071.06;5074881;28;20043;-84
2022/10/29 00:55:06;;;;;;;2.17;2.00;;;;;;;13.22;94.16;102065.84;5073628;28;20036;-84
2022/10/29 00:57:37;;;;;;;3.95;2.30;;;;;;;13.27;94.65;102065.81;5074997;28;20031;-84
2022/10/29 01:00:03;;;;;;;3.05;2.33;;;;;;;13.28;94.43;102065.78;5074566;28;20032;-84
2022/10/29 01:02:30;;;;;;;3.37;2.30;;;;;;;13.31;94.21;102067.50;5074245;28;20036;-84
2022/10/29 01:04:56;;;;;;;3.03;2.40;;;;;;;13.32;94.34;102068.38;5074353;28;20519;-84
2022/10/29 01:07:21;;;;;;;2.67;2.20;;;;;;;13.33;94.35;102064.91;5074954;28;20028;-84
2022/10/29 01:09:47;;;;;;;2.70;2.30;;;;;;;13.32;94.40;102064.03;5074121;28;20381;-84
2022/10/29 01:12:28;;;;;;;2.67;2.20;;;;;;;13.33;94.70;102051.88;5074407;28;20033;-84
2022/10/29 01:15:07;;;;;;;2.20;1.88;;;;;;;13.31;94.44;102041.44;5072684;28;20032;-84
2022/10/29 01:17:50;;;;;;;2.45;2.00;;;;;;;13.30;95.00;102042.31;5074234;28;20530;-84
2022/10/29 01:20:15;;;;;;;3.80;2.28;;;;;;;13.29;95.11;102035.34;5074254;28;20037;-84
2022/10/29 01:22:56;;;;;;;2.63;2.20;;;;;;;13.27;94.73;102034.53;5073854;28;20066;-84
2022/10/29 01:25:46;;;;;;;2.35;2.15;;;;;;;13.24;94.61;102035.41;5074324;28;20055;-84
2022/10/29 01:28:40;;;;;;;2.85;2.30;;;;;;;13.22;94.69;102036.28;5074226;28;20028;-84
2022/10/29 01:31:16;;;;;;;3.50;2.35;;;;;;;13.19;94.26;102044.13;5073491;28;20028;-84
2022/10/29 01:34:09;;;;;;;3.65;2.45;;;;;;;13.17;94.46;102045.91;5074237;28;20211;-84
2022/10/29 01:36:43;;;;;;;3.05;2.47;;;;;;;13.13;94.62;102040.69;5073586;28;20041;-84
2022/10/29 01:39:18;;;;;;;3.97;2.22;;;;;;;13.10;94.54;102032.03;5073802;28;20028;-84
2022/10/29 01:42:12;;;;;;;2.70;2.30;;;;;;;13.10;94.96;102029.44;5074173;28;20055;-84
2022/10/29 01:44:49;;;;;;;3.63;2.28;;;;;;;13.08;94.72;102018.16;5073376;28;20024;-84
2022/10/29 01:47:16;;;;;;;;;;;;;;;13.04;94.69;102006.00;5074126;28;20024;-84
2022/10/29 01:49:46;;;;;;;2.83;2.40;;;;;;;12.98;94.63;102006.91;5073562;28;19912;-84
2022/10/29 01:52:15;;;;;;;3.42;2.40;;;;;;;12.97;94.94;102005.19;5072887;28;20064;-84
2022/10/29 01:54:42;;;;;;;3.55;2.55;;;;;;;12.94;94.69;102003.47;5073877;28;20064;-84
2022/10/29 01:57:34;;;;;;;2.88;2.33;;;;;;;12.91;94.91;101993.06;5072878;28;20028;-84
2022/10/29 02:00:12;;;;;;;2.40;2.20;;;;;;;12.85;94.85;101995.72;5073230;28;20025;-84
2022/10/29 02:02:44;;;;;;;2.20;2.00;;;;;;;12.81;94.82;101992.28;5073188;28;20094;-84
2022/10/29 02:05:28;;;;;;;2.85;2.25;;;;;;;12.79;95.05;101995.75;5072517;28;20056;-84
2022/10/29 02:08:16;;;;;;;3.83;2.50;;;;;;;12.78;95.19;101992.28;5073232;28;20025;-84
2022/10/29 02:11:00;;;;;;;3.10;2.50;;;;;;;12.76;95.30;101991.41;5073595;28;20032;-84
2022/10/29 02:13:32;;;;;;;2.70;2.25;;;;;;;12.75;95.06;101994.06;5072875;28;20028;-84
2022/10/29 02:15:59;;;;;;;2.47;2.22;;;;;;;12.74;95.24;101994.91;5073134;28;20021;-84
2022/10/29 02:18:24;;;;;;;2.58;2.20;;;;;;;12.73;95.18;101993.19;5052731;28;20060;-84
2022/10/29 02:20:49;;;;;;;4.20;2.83;;;;;;;12.72;95.11;101988.84;5053142;28;20443;-83
2022/10/29 02:23:15;;;;;;;2.73;2.33;;;;;;;12.71;95.12;101990.59;5053251;28;20112;-84
2022/10/29 02:25:41;;;;;;;2.30;2.08;;;;;;;12.69;95.03;101981.94;5052371;28;20032;-84
2022/10/29 02:28:06;;;;;;;2.90;2.40;;;;;;;12.67;95.13;101987.13;5052356;28;20029;-83
2022/10/29 02:30:32;;;;;;;3.53;2.50;;;;;;;12.63;95.24;101982.81;5053319;28;20100;-83
2022/10/29 02:32:57;;;;;;;2.67;2.40;;;;;;;12.61;95.04;101981.97;5052101;28;20024;-84
2022/10/29 02:35:22;;;;;;;3.20;2.20;;;;;;;12.60;95.16;101979.38;5052842;28;20025;-84
2022/10/29 02:37:47;;;;;;;3.37;2.60;;;;;;;12.57;95.37;101967.22;5053167;28;20025;-84
2022/10/29 02:40:13;;;;;;;3.57;2.60;;;;;;;12.59;95.20;101962.03;5052034;28;20021;-84
2022/10/29 02:42:38;;;;;;;3.80;2.30;;;;;;;12.58;95.59;101955.09;5069770;28;20484;-84
2022/10/29 02:45:04;;;;;;;3.47;2.53;;;;;;;12.56;95.57;101957.66;5072652;28;20055;-84
2022/10/29 02:47:29;;;;;;;3.50;2.57;;;;;;;12.56;95.40;101962.03;5072346;28;20027;-84
2022/10/29 02:49:55;;;;;;;2.80;2.37;;;;;;;12.54;95.36;101958.56;5072782;28;20511;-84
2022/10/29 02:52:20;;;;;;;3.00;2.43;;;;;;;12.51;95.59;101957.69;5072773;28;20070;-84
2022/10/29 02:54:45;;;;;;;3.50;2.50;;;;;;;12.51;95.58;101962.06;5071983;28;20036;-83
2022/10/29 02:57:10;;;;;;;2.90;2.60;;;;;;;12.49;95.45;101954.28;5072131;28;20103;-83
2022/10/29 02:59:36;;;;;;;3.80;2.57;;;;;;;12.49;95.23;101967.28;5072977;28;20017;-84
2022/10/29 03:02:01;;;;;;;3.70;2.50;;;;;;;12.48;95.54;101967.28;5072005;28;20473;-84
2022/10/29 03:04:26;;;;;;;3.97;3.00;;;;;;;12.43;96.33;101956.88;5072421;28;20056;-83
2022/10/29 03:06:52;;;;;;;3.20;2.50;;;;;;;12.38;96.05;101958.66;5072439;28;20143;-83
2022/10/29 03:09:17;;;;;;;2.90;2.30;;;;;;;12.35;95.88;101948.25;5071982;28;20025;-83
2022/10/29 03:11:42;;;;;;;3.23;2.20;;;;;;;12.32;95.59;101948.25;5072679;28;20028;-83
2022/10/29 03:14:07;;;;;;;3.17;2.30;;;;;;;12.32;95.90;101949.16;5072491;28;20040;-84
2022/10/29 03:16:33;;;;;;;2.73;2.40;;;;;;;12.31;95.89;101938.72;5071809;28;20024;-84
2022/10/29 03:18:58;;;;;;;3.90;2.60;;;;;;;12.34;95.73;101944.78;5072173;28;20023;-84
2022/10/29 03:21:23;;;;;;;3.53;2.60;;;;;;;12.35;95.99;101943.91;5072227;28;20052;-84
2022/10/29 03:23:49;;;;;;;2.87;2.30;;;;;;;12.33;95.91;101935.22;5071663;28;20078;-84
2022/10/29 03:26:14;;;;;;;5.37;2.60;;;;;;;12.33;95.90;101931.78;5072633;28;20025;-84
2022/10/29 03:28:39;;;;;;;2.97;2.60;;;;;;;12.33;96.11;101936.97;5071670;28;20477;-83
2022/10/29 03:31:05;;;;;;;4.23;2.80;;;;;;;12.32;96.06;101932.66;5072448;28;20040;-84
2022/10/29 03:33:30;;;;;;;3.07;2.60;;;;;;;12.29;95.95;101927.44;5072551;28;20028;-84
2022/10/29 03:35:59;;;;;;;4.87;2.50;;;;;;;12.30;96.02;101929.19;5071425;28;20033;-84
2022/10/29 03:38:25;;;;;;;4.30;2.70;;;;;;;12.29;96.25;101930.06;5073959;28;20024;-83
2022/10/29 03:40:51;;;;;;;3.53;2.63;;;;;;;12.30;95.83;101926.56;5075951;28;20107;-83
2022/10/29 03:43:17;;;;;;;4.47;2.83;;;;;;;12.31;96.16;101923.09;5075669;28;20039;-84
2022/10/29 03:45:42;;;;;;;3.50;2.47;;;;;;;12.32;96.32;101923.13;5076335;28;20028;-84
2022/10/29 03:48:07;;;;;;;3.17;2.40;;;;;;;12.34;96.53;101921.34;5075879;28;20059;-84
2022/10/29 03:50:32;;;;;;;2.47;2.20;;;;;;;12.36;96.74;101921.34;5075398;28;20039;-84
2022/10/29 03:52:58;;;;;;;2.67;2.20;;;;;;;12.39;96.45;101928.28;5076070;28;20028;-83
2022/10/29 03:55:23;;;;;;;4.13;2.70;;;;;;;12.40;96.31;101912.63;5075363;28;20033;-83
2022/10/29 03:57:49;;;;;;;2.30;2.10;;;;;;;12.42;96.49;101917.84;5075499;28;20028;-83
2022/10/29 04:00:15;;;;;;;3.47;2.40;;;;;;;12.43;96.37;101917.84;5075820;28;20016;-84
2022/10/29 04:02:40;;;;;;;2.50;2.20;;;;;;;12.44;97.00;101910.91;5076016;28;20017;-84
2022/10/29 04:05:06;;;;;;;2.53;2.13;;;;;;;12.43;97.31;101896.16;5074506;28;20509;-83
2022/10/29 04:07:31;;;;;;;2.63;2.17;;;;;;;12.41;97.54;101888.34;5075999;28;20150;-83
2022/10/29 04:09:56;;;;;;;4.03;2.30;;;;;;;12.44;97.41;101887.47;5075627;28;20048;-83
2022/10/29 04:12:22;;;;;;;4.20;2.63;;;;;;;12.45;97.12;101884.84;5075153;28;20025;-83
2022/10/29 04:14:47;;;;;;;4.67;2.70;;;;;;;12.49;97.36;101886.56;5075659;28;20024;-84
2022/10/29 04:17:12;;;;;;;4.73;2.97;;;;;;;12.49;97.02;101883.97;5075511;28;20024;-84
2022/10/29 04:19:38;;;;;;;4.23;2.70;;;;;;;12.52;97.68;101881.31;5074703;28;20452;-83
2022/10/29 04:22:03;;;;;;;4.13;2.70;;;;;;;12.52;97.42;101877.88;5074953;28;20370;-83
2022/10/29 04:24:28;;;;;;;2.97;2.50;;;;;;;12.54;97.38;101870.03;5075724;28;20028;-83
2022/10/29 04:26:53;;;;;;;3.50;2.50;;;;;;;12.54;97.66;101876.13;5074661;28;20383;-83
2022/10/29 04:29:19;;;;;;;3.13;2.17;;;;;;;12.54;97.80;101872.63;5075682;28;20469;-84
2022/10/29 04:31:44;;;;;;;2.90;2.40;;;;;;;12.53;97.77;101871.78;5075120;28;20032;-84
2022/10/29 04:34:09;;;;;;;2.60;2.40;;;;;;;12.52;97.37;101873.50;5074653;28;20024;-84
2022/10/29 04:36:35;;;;;;;3.27;2.30;;;;;;;12.51;97.83;101868.31;5075463;28;20028;-84
2022/10/29 04:39:00;;;;;;;3.40;2.00;;;;;;;12.49;97.78;101859.66;5074032;28;20473;-84
2022/10/29 04:41:25;;;;;;;4.67;2.80;;;;;;;12.51;98.22;101863.13;5075374;28;20036;-84
2022/10/29 04:43:50;;;;;;;6.33;3.30;;;;;;;12.56;98.01;101860.47;5075026;28;20582;-83
2022/10/29 04:46:16;;;;;;;7.37;3.70;;;;;;;12.59;97.93;101863.91;5074565;28;20035;-84
2022/10/29 04:48:41;;;;;;;6.87;3.63;;;;;;;12.61;98.14;101869.97;5074968;28;20032;-84
2022/10/29 04:51:06;;;;;;;6.67;3.80;;;;;;;12.66;98.14;101880.38;5073637;28;20439;-84
2022/10/29 04:53:31;;;;;;;5.63;3.20;;;;;;;12.66;98.32;101875.16;5073891;28;20044;-83
2022/10/29 04:56:02;;;;;;;3.90;2.70;;;;;;;12.65;98.73;101874.31;5074803;28;20024;-84
2022/10/29 04:58:27;;;;;;;5.05;3.15;;;;;;;12.66;98.38;101872.56;5074754;28;20082;-84
2022/10/29 05:00:52;;;;;;;4.43;2.60;;;;;;;12.65;98.18;101874.31;5073931;28;20020;-84
2022/10/29 05:03:18;;;;;;;2.93;2.47;;;;;;;12.65;98.91;101870.81;5074655;28;20127;-84
2022/10/29 05:05:43;;;;;;;4.87;2.80;;;;;;;12.60;99.18;101862.19;5074797;28;20017;-83
2022/10/29 05:08:09;;;;;;;3.30;2.60;;;;;;;12.61;99.51;101862.16;5073571;28;20031;-83
2022/10/29 05:10:37;;;;;;;3.80;2.40;;;;;;;12.58;99.04;101866.53;5074885;28;20013;-84
2022/10/29 05:13:06;;;;;;;3.85;2.50;;;;;;;12.56;98.80;101852.66;5074194;28;20488;-84
2022/10/29 05:15:31;;;;;;;4.18;2.67;;;;;;;12.56;98.54;101858.72;5074038;28;20052;-83
2022/10/29 05:17:57;;;;;;;2.67;2.30;;;;;;;12.55;98.73;101863.94;5074052;28;20463;-83
2022/10/29 05:20:23;;;;;;;3.87;2.53;;;;;;;12.54;98.81;101863.09;5074243;28;20025;-83
2022/10/29 05:22:48;;;;;;;3.00;2.25;;;;;;;12.50;99.07;101849.22;5073545;28;20021;-84
2022/10/29 05:25:14;;;;;;;2.70;2.17;;;;;;;12.48;99.12;101858.81;5074161;28;20507;-84
2022/10/29 05:27:39;;;;;;;2.87;2.30;;;;;;;12.45;99.25;101852.72;5073896;28;20441;-83
2022/10/29 05:30:05;;;;;;;3.57;2.40;;;;;;;12.42;99.04;101847.56;5072925;28;20385;-83
2022/10/29 05:32:30;;;;;;;2.60;2.30;;;;;;;12.43;98.96;101846.69;5074063;28;20119;-84
2022/10/29 05:34:56;;;;;;;3.30;2.27;;;;;;;12.44;99.02;101851.88;5073772;28;20115;-84
2022/10/29 05:37:24;;;;;;;2.40;2.20;;;;;;;12.44;99.35;101846.66;5073256;28;20090;-83
2022/10/29 05:39:49;;;;;;;3.63;2.35;;;;;;;12.43;99.36;101839.72;5073999;28;20024;-84
2022/10/29 05:42:15;;;;;;;2.97;2.30;;;;;;;12.41;99.99;101832.81;5073463;28;20058;-83
2022/10/29 05:44:40;;;;;;;6.07;3.10;;;;;;;12.46;100.00;101838.84;5073403;28;20030;-84
2022/10/29 05:47:05;;;;;;;4.93;3.20;;;;;;;12.46;100.00;101849.25;5073691;28;20036;-84
2022/10/29 05:49:30;;;;;;;5.00;3.20;;;;;;;12.47;99.86;101841.44;5072719;28;20561;-83
2022/10/29 05:51:56;;;;;;;7.87;3.27;;;;;;;12.52;100.00;101844.88;5073157;28;20025;-83
2022/10/29 05:54:21;;;;;;;6.57;3.30;;;;;;;12.55;100.00;101836.19;5073840;28;20465;-84
2022/10/29 05:56:46;;;;;;;9.97;4.23;;;;;;;12.57;100.00;101825.75;5073085;28;20029;-83
2022/10/29 05:59:12;;;;;;;6.50;3.87;;;;;;;12.58;100.00;101824.88;5073381;28;20115;-83
2022/10/29 06:01:37;;;;;;;6.40;3.57;;;;;;;12.60;100.00;101830.94;5073163;28;20055;-82
2022/10/29 06:04:03;;;;;;;5.23;3.20;;;;;;;12.62;100.00;101826.56;5072436;28;20048;-82
2022/10/29 06:06:28;;;;;;;6.67;4.10;;;;;;;12.62;100.00;101818.75;5073715;28;20058;-82
2022/10/29 06:08:53;;;;;;;6.27;3.40;;;;;;;12.63;100.00;101820.47;5073323;28;20027;-83
2022/10/29 06:11:18;;;;;;;5.40;3.23;;;;;;;12.63;100.00;101821.34;5072434;28;20024;-81
2022/10/29 06:13:44;;;;;;;6.20;3.30;;;;;;;12.65;100.00;101830.03;5073502;28;20028;-81
2022/10/29 06:16:09;;;;;;;5.80;2.90;;;;;;;12.67;100.00;101830.84;5073069;28;20028;-81
2022/10/29 06:18:34;;;;;;;3.60;2.53;;;;;;;12.72;100.00;101835.16;5072388;28;20031;-81
2022/10/29 06:20:59;;;;;;;5.93;3.60;;;;;;;12.76;99.91;101836.88;5073151;28;20028;-81
2022/10/29 06:23:26;;;;;;;5.40;3.30;;;;;;;12.77;100.00;101839.47;5073610;28;20467;-81
2022/10/29 06:25:51;;;;;;;3.85;2.90;;;;;;;12.79;100.00;101842.94;5072337;28;20020;-81
2022/10/29 06:28:17;;;;;;;4.73;2.90;;;;;;;12.81;100.00;101841.19;5073176;28;20062;-81
2022/10/29 06:30:50;;;;;;;3.75;2.50;;;;;;;12.82;100.00;101845.50;5072959;28;20366;-81
2022/10/29 06:33:16;;;;;;;4.53;2.90;;;;;;;12.83;100.00;101849.81;5072264;28;20037;-81
2022/10/29 06:35:42;;;;;;;2.95;2.42;;;;;;;12.85;100.00;101846.34;5073099;28;20033;-82
2022/10/29 06:38:07;;;;;;;3.70;2.70;;;;;;;12.85;100.00;101844.63;5072626;28;20017;-81
2022/10/29 06:40:33;;;;;;;2.37;2.17;;;;;;;12.85;100.00;101828.97;5072479;28;20055;-81
2022/10/29 06:43:00;;;;;;;3.27;2.30;;;;;;;12.87;100.00;101840.25;5073297;28;20017;-81
2022/10/29 06:45:25;;;;;;;2.78;2.40;;;;;;;12.88;100.00;101849.81;5071943;28;20024;-81
2022/10/29 06:47:50;;;;;;;3.20;2.50;;;;;;;12.87;100.00;101842.00;5072522;28;20032;-81
2022/10/29 06:50:16;;;;;;;5.43;2.80;;;;;;;12.89;100.00;101845.44;5072952;28;20043;-81
2022/10/29 06:52:41;;;;;;;3.80;2.33;;;;;;;12.88;100.00;101849.81;5072069;28;20025;-81
2022/10/29 06:55:07;;;;;;;4.83;2.77;;;;;;;12.88;100.00;101844.59;5072499;28;20029;-80
2022/10/29 06:57:33;;;;;;;4.80;2.50;;;;;;;12.89;100.00;101841.09;5072950;28;20016;-81
2022/10/29 06:59:58;;;;;;;3.30;2.60;;;;;;;12.91;100.00;101851.50;5071862;28;20500;-80
2022/10/29 07:02:23;;;;;;;3.50;2.50;;;;;;;12.91;100.00;101860.19;5072695;28;20024;-93
2022/10/29 07:04:49;;;;;;;2.77;2.30;;;;;;;12.92;100.00;101855.84;5072616;28;20053;-83
2022/10/29 07:07:15;;;;;;;4.23;2.30;;;;;;;12.94;100.00;101854.09;5070578;28;20021;-84
2022/10/29 07:09:41;;;;;;;3.57;2.60;;;;;;;12.92;100.00;101853.25;5072585;28;20021;-84
2022/10/29 07:12:07;;;;;;;5.43;2.70;;;;;;;12.94;100.00;101854.09;5072360;28;20275;-82
2022/10/29 07:14:32;;;;;;;2.67;2.30;;;;;;;12.95;100.00;101851.47;5074947;28;20036;-82
2022/10/29 07:16:58;;;;;;;5.73;2.97;;;;;;;12.95;100.00;101842.78;5076389;28;20423;-83
2022/10/29 07:19:23;;;;;;;6.80;3.30;;;;;;;12.92;100.00;101838.47;5076729;28;20031;-83
2022/10/29 07:21:48;;;;;;;5.80;3.30;;;;;;;12.94;100.00;101839.31;5076194;28;20104;-83
2022/10/29 07:24:16;;;;;;;4.17;3.10;;;;;;;12.96;100.00;101841.91;5076402;28;20032;-83
2022/10/29 07:26:41;;;;;;;3.78;2.85;;;;;;;12.98;100.00;101841.03;5076769;28;20020;-83
2022/10/29 07:29:07;;;;;;;3.90;2.70;;;;;;;12.98;100.00;101833.22;5075774;28;20420;-83
2022/10/29 07:31:32;;;;;;;5.13;3.00;;;;;;;12.97;100.00;101826.28;5076371;28;20046;-83
2022/10/29 07:33:57;;;;;;;5.17;3.00;;;;;;;13.00;100.00;101817.56;5075940;28;20107;-84
2022/10/29 07:36:23;;;;;;;4.50;3.03;;;;;;;13.05;100.00;101825.31;5076055;28;20484;-83
2022/10/29 07:38:48;;;;;;;3.03;2.60;;;;;;;13.05;100.00;101821.00;5076549;28;20021;-83
2022/10/29 07:41:14;;;;;;;3.30;2.47;;;;;;;13.10;100.00;101824.41;5075345;28;20016;-83
2022/10/29 07:43:39;;;;;;;4.37;3.07;;;;;;;13.16;100.00;101822.63;5075525;28;20032;-83
2022/10/29 07:46:04;;;;;;;3.53;2.50;;;;;;;13.20;100.00;101819.97;5075943;28;20036;-83
2022/10/29 07:48:30;;;;;;;4.77;2.80;;;;;;;13.24;100.00;101821.63;5076189;28;20104;-84
2022/10/29 07:50:59;;;;;;;3.60;2.57;;;;;;;13.28;100.00;101817.28;5075151;28;20419;-84
2022/10/29 07:53:25;;;;;;;4.90;3.00;;;;;;;13.31;100.00;101822.44;5076020;28;20120;-83
2022/10/29 07:55:54;;;;;;;5.37;2.87;;;;;;;13.39;100.00;101818.06;5075180;28;20107;-84
2022/10/29 07:58:20;;;;;;;5.95;3.22;;;;;;;13.44;100.00;101823.22;5075936;28;20085;-83
2022/10/29 08:00:45;;;;;;;5.95;3.05;;;;;;;13.46;100.00;101820.56;5075825;28;20069;-82
2022/10/29 08:03:11;;;;;;;3.77;2.80;;;;;;;13.49;100.00;101826.63;5074126;28;20056;-81
2022/10/29 08:05:37;;;;;;;3.97;2.50;;;;;;;13.52;100.00;101828.31;5075789;28;20032;-92
2022/10/29 08:08:04;;;;;;;4.13;2.80;;;;;;;13.56;100.00;101820.47;5075475;28;20103;-83
2022/10/29 08:10:30;;;;;;;2.97;2.30;;;;;;;13.64;100.00;101824.72;5074800;28;20025;-85
2022/10/29 08:12:58;;;;;;;3.38;2.47;;;;;;;13.69;100.00;101826.38;5075439;28;20028;-87
2022/10/29 08:15:24;;;;;;;4.38;2.88;;;;;;;13.74;100.00;101824.56;5075491;28;20409;-84
2022/10/29 08:17:50;;;;;;;3.83;2.75;;;;;;;13.82;100.00;101818.41;5074441;28;20029;-83
2022/10/29 08:20:15;;;;;;;3.90;2.57;;;;;;;13.87;100.00;101811.34;5075455;28;20043;-83
2022/10/29 08:22:41;;;;;;;4.63;2.60;;;;;;;13.92;100.00;101804.34;5075657;28;20029;-84
2022/10/29 08:25:07;;;;;;;3.87;2.47;;;;;;;13.98;100.00;101821.66;5074338;28;20039;-83
2022/10/29 08:27:32;;;;;;;3.83;2.40;;;;;;;14.04;100.00;101800.69;5075453;28;20032;-83
2022/10/29 08:29:57;;;;;;;4.23;2.67;;;;;;;14.11;100.00;101798.84;5074901;28;20032;-83
2022/10/29 08:32:22;;;;;;;6.87;3.90;;;;;;;14.15;100.00;101795.31;5074451;28;20055;-83
2022/10/29 08:34:48;;;;;;;7.13;4.00;;;;;;;14.18;100.00;101795.28;5075350;28;20036;-83
2022/10/29 08:37:13;;;;;;;8.00;4.27;;;;;;;14.22;100.00;101799.53;5075288;28;20380;-83
2022/10/29 08:39:38;;;;;;;8.60;4.17;;;;;;;14.28;100.00;101803.81;5073948;28;20020;-83
2022/10/29 08:42:23;;;;;;;7.40;3.70;;;;;;;14.33;100.00;101809.84;5074992;28;20032;-83
2022/10/29 08:44:54;;;;;;;6.57;3.35;;;;;;;14.41;100.00;101820.16;5074333;28;20062;-83
2022/10/29 08:47:22;;;;;;;5.75;3.05;;;;;;;14.47;100.00;101820.91;5073567;28;20153;-83
2022/10/29 08:50:23;;;;;;;7.30;4.00;;;;;;;14.58;100.00;101818.13;5080333;28;20090;-83
2022/10/29 08:52:50;;;;;;;8.30;4.50;;;;;;;14.65;100.00;101806.69;5094283;28;20102;-84
2022/10/29 08:55:33;;;;;;;11.40;5.32;;;;;;;14.74;100.00;101803.09;5094773;28;20038;-83
2022/10/29 08:58:16;;;;;;;10.55;4.93;;;;;;;14.81;100.00;101807.31;5094430;28;20028;-83
2022/10/29 09:00:42;;;;;;;13.02;5.50;;;;;;;14.87;100.00;101801.13;5092309;28;20039;-83
2022/10/29 09:03:11;;;;;;;8.93;4.97;;;;;;;14.94;100.00;101804.47;5091918;28;20028;-83
2022/10/29 09:05:52;;;;;;;8.27;4.35;;;;;;;14.98;100.00;101799.16;5082184;28;20028;-83
2022/10/29 09:08:25;;;;;;;9.35;4.68;;;;;;;15.03;100.00;101798.22;5070782;28;20020;-83
2022/10/29 09:10:54;;;;;;;7.60;4.20;;;;;;;15.09;100.00;101795.50;5074468;28;20028;-83
2022/10/29 09:14:04;;;;;;;9.07;4.10;;;;;;;15.18;100.00;101786.63;5073833;28;20028;-83
2022/10/29 09:16:41;;;;;;;7.22;3.90;;;;;;;15.28;100.00;101783.81;5074108;28;20030;-83
2022/10/29 09:19:26;;;;;;;8.02;4.13;;;;;;;15.40;100.00;101792.28;5074389;28;20024;-83
2022/10/29 09:22:18;;;;;;;8.75;4.07;;;;;;;15.49;100.00;101789.47;5073719;28;20476;-83
2022/10/29 09:25:13;;;;;;;7.55;3.92;;;;;;;15.59;100.00;101785.78;5074623;28;20043;-83
2022/10/29 09:27:59;;;;;;;6.70;3.90;;;;;;;15.69;100.00;101799.53;5054596;28;20103;-83
2022/10/29 09:30:29;;;;;;;17.10;7.32;;;;;;;15.78;100.00;101795.84;5065713;28;20370;-83
2022/10/29 09:33:13;;;;;;;16.67;7.53;;;;;;;15.80;100.00;101783.59;5073880;28;20024;-83
2022/10/29 09:35:44;;;;;;;18.88;8.45;;;;;;;15.85;100.00;101775.66;5072860;28;20024;-83
2022/10/29 09:38:17;;;;;;;18.80;8.43;;;;;;;15.87;100.00;101772.13;5073943;28;20025;-83
2022/10/29 09:40:43;;;;;;;23.40;10.23;;;;;;;15.90;99.95;101779.88;5074110;28;20071;-84
2022/10/29 09:43:14;;;;;;;23.53;10.83;;;;;;;15.92;100.00;101779.88;5072873;28;20025;-83
2022/10/29 09:46:04;;;;;;;24.80;11.82;;;;;;;15.96;100.00;101772.81;5074307;28;20020;-83
2022/10/29 09:48:47;;;;;;;24.10;10.98;;;;;;;16.01;100.00;101782.28;5072929;28;20020;-83
2022/10/29 09:51:42;;;;;;;21.88;9.65;;;;;;;16.08;100.00;101775.16;5073709;28;20469;-84
2022/10/29 09:54:08;;;;;;;23.52;10.10;;;;;;;16.14;100.00;101768.91;5073764;28;20029;-84
2022/10/29 09:56:34;;;;;;;20.98;9.73;;;;;;;16.20;100.00;101758.25;5068384;28;20027;-84
2022/10/29 09:59:25;;;;;;;22.73;10.97;;;;;;;16.32;100.00;101757.13;5071999;28;20392;-83
2022/10/29 10:01:51;;;;;;;23.08;10.35;;;;;;;16.43;100.00;101751.59;5072866;28;20109;-83
2022/10/29 10:04:33;;;;;;;25.03;11.53;;;;;;;16.52;99.56;101747.00;5072013;28;20119;-83
2022/10/29 10:07:09;;;;;;;22.50;10.35;;;;;;;16.76;99.61;101756.84;5073264;28;20372;-83
2022/10/29 10:10:00;;;;;;;22.58;10.85;;;;;;;17.09;99.19;101749.88;5070986;28;20047;-83
2022/10/29 10:12:44;;;;;;;18.80;8.90;;;;;;;17.33;98.82;101747.44;5071331;28;20036;-84
2022/10/29 10:15:17;;;;;;;17.90;7.97;;;;;;;17.45;97.62;101743.59;5071243;28;20040;-84
2022/10/29 10:18:17;;;;;;;17.83;7.68;;;;;;;17.53;97.50;101748.63;5070746;28;20111;-84
2022/10/29 10:20:58;;;;;;;17.70;7.75;;;;;;;17.64;96.24;101749.16;5060104;28;20457;-84
2022/10/29 10:23:26;;;;;;;15.05;6.15;;;;;;;17.82;95.12;101747.72;5072455;28;20473;-84
2022/10/29 10:25:56;;;;;;;12.90;6.00;;;;;;;18.02;95.49;101749.72;5072965;28;20016;-84
2022/10/29 10:28:25;;;;;;;11.38;5.25;;;;;;;18.19;95.08;101750.97;5072883;28;20099;-84
2022/10/29 10:31:14;;;;;;;12.20;5.57;;;;;;;18.35;94.04;101746.06;5072138;28;20484;-84
2022/10/29 10:33:51;;;;;;;10.60;4.70;;;;;;;18.47;93.81;101748.25;5065079;28;20036;-84
2022/10/29 10:36:20;;;;;;;9.13;4.95;;;;;;;18.58;90.21;101741.78;5073116;28;20021;-84
2022/10/29 10:38:49;;;;;;;13.52;5.78;;;;;;;18.65;92.15;101738.88;5071808;28;20048;-84
2022/10/29 10:41:21;;;;;;;9.95;4.88;;;;;;;18.73;92.50;101746.50;5073020;28;20024;-85
2022/10/29 10:43:47;;;;;;;9.27;4.85;;;;;;;18.82;91.73;101732.16;5072986;28;20465;-84
2022/10/29 10:46:24;;;;;;;8.67;4.40;;;;;;;18.91;91.44;101739.75;5072303;28;20048;-84
2022/10/29 10:49:04;;;;;;;7.43;3.85;;;;;;;19.03;91.37;101745.50;5072213;28;20041;-85
2022/10/29 10:51:32;;;;;;;9.57;4.72;;;;;;;19.14;89.10;101740.66;5072952;28;20025;-85
2022/10/29 10:54:02;;;;;;;12.55;5.28;;;;;;;19.26;88.23;101727.06;5071591;28;20021;-84
2022/10/29 10:56:28;;;;;;;12.27;5.60;;;;;;;19.36;85.64;101724.09;5072646;28;20521;-84
2022/10/29 10:59:11;;;;;;;11.10;5.10;;;;;;;19.44;85.85;101714.13;5071284;28;20024;-84
2022/10/29 11:01:41;;;;;;;11.00;5.10;;;;;;;19.50;86.24;101716.50;5072721;28;20029;-83
2022/10/29 11:04:14;;;;;;;9.80;4.55;;;;;;;19.59;85.85;101715.28;5072460;28;20389;-84
2022/10/29 11:06:42;;;;;;;9.32;4.38;;;;;;;19.66;85.01;101718.53;5072511;28;20040;-85
2022/10/29 11:09:27;;;;;;;7.80;3.90;;;;;;;19.69;79.07;101716.63;5072328;28;20025;-84
2022/10/29 11:12:09;;;;;;;8.73;4.10;;;;;;;19.81;85.68;101722.34;5072691;28;20536;-83
2022/10/29 11:14:44;;;;;;;6.78;3.40;;;;;;;19.88;85.44;101719.44;5071971;28;20039;-82
2022/10/29 11:17:28;;;;;;;6.20;3.30;;;;;;;19.99;85.02;101715.50;5072705;28;20472;-82
2022/10/29 11:20:00;;;;;;;6.03;3.25;;;;;;;20.10;84.82;101713.28;5071773;28;20123;-81
2022/10/29 11:22:26;;;;;;;5.07;3.25;;;;;;;20.19;81.07;101709.41;5072507;28;20028;-82
2022/10/29 11:25:15;;;;;;;5.30;3.10;;;;;;;20.30;81.26;101704.53;5072496;28;20107;-81
2022/10/29 11:27:52;;;;;;;6.70;3.30;;;;;;;20.41;82.99;101714.59;5071521;28;20496;-82
2022/10/29 11:30:18;;;;;;;5.25;2.90;;;;;;;20.50;82.48;101701.00;5072545;28;20063;-82
2022/10/29 11:33:01;;;;;;;6.75;2.75;;;;;;;20.58;81.89;101705.13;5072739;28;20432;-82